EmailTwitter


Surface observations / Quebec / CYUL (71627)

Regions: Quebec | Canada | USA | Europe | France | UK | Elsewhere
Station
Display
Info & Location for CYUL (71627) | Help decoding METAR

Weather Conditions observed on 2019/04/23 at 08:00 UTC at MONTREAL INTL A, QB (CYUL)

Sky conditions: partly cloudy.

Temperature: 7.0 Celsius.

Dewpoint: -3.0 Celsius.

Relative Humidity: 49%

Windchill Factor: 3.

Winds: Northeast at 24 km/h or 13 knots.

Mean Sea level Pressure: 101.87 kilopascals.

Altimeter Setting (QNH): 101.86 kilopascals or 30.08 inches of mercury.

Horizontal visibility: 15.00 statute miles or 24.00 kilometers.

Height of the Ceiling: 6096 metres ( 20000 feet ).

Coded METAR:

CYUL 230800Z 03013KT 15SM FEW180 BKN200 07/M03 A3008 RMK AC2CC3 SLP187=